createdAt,value
2023-05-12T03:43:06.596Z,1007.24
2023-05-12T03:44:06.592Z,1007.30
2023-05-12T03:45:06.586Z,1007.29
2023-05-12T03:46:06.658Z,1007.29
2023-05-12T03:47:06.628Z,1007.29
2023-05-12T03:48:06.592Z,1007.32
2023-05-12T03:49:06.536Z,1007.34
2023-05-12T03:50:06.526Z,1007.32
2023-05-12T03:51:06.518Z,1007.31
2023-05-12T03:52:06.500Z,1007.34
2023-05-12T03:53:06.489Z,1007.31
2023-05-12T03:54:06.481Z,1007.32
2023-05-12T03:55:06.477Z,1007.36
2023-05-12T03:56:06.458Z,1007.37
2023-05-12T03:57:06.455Z,1007.30
2023-05-12T03:58:06.434Z,1007.33
2023-05-12T03:59:06.430Z,1007.35
2023-05-12T04:00:06.428Z,1007.34
2023-05-12T04:01:06.399Z,1007.34
2023-05-12T04:02:06.443Z,1007.33
2023-05-12T04:03:06.430Z,1007.35
2023-05-12T04:04:06.421Z,1007.34
2023-05-12T04:05:06.356Z,1007.37
2023-05-12T04:06:06.347Z,1007.34
2023-05-12T04:07:06.333Z,1007.35
2023-05-12T04:08:06.320Z,1007.37
2023-05-12T04:09:06.310Z,1007.36
2023-05-12T04:10:06.307Z,1007.41
2023-05-12T04:11:06.290Z,1007.39
2023-05-12T04:12:06.281Z,1007.41
2023-05-12T04:13:06.271Z,1007.44
2023-05-12T04:14:06.259Z,1007.39
2023-05-12T04:15:06.266Z,1007.47
2023-05-12T04:16:06.271Z,1007.49
2023-05-12T04:17:06.226Z,1007.48
2023-05-12T04:18:06.219Z,1007.48
2023-05-12T04:19:06.259Z,1007.50
2023-05-12T04:20:06.213Z,1007.48
2023-05-12T04:21:06.196Z,1007.48
2023-05-12T04:22:06.170Z,1007.48
2023-05-12T04:23:06.164Z,1007.53
2023-05-12T04:24:06.151Z,1007.52
2023-05-12T04:25:06.150Z,1007.52
2023-05-12T04:26:06.124Z,1007.56
2023-05-12T04:27:06.116Z,1007.54
2023-05-12T04:28:06.110Z,1007.57
2023-05-12T04:29:06.096Z,1007.62
2023-05-12T04:30:06.084Z,1007.66
2023-05-12T04:31:06.077Z,1007.66
2023-05-12T04:32:06.082Z,1007.66
2023-05-12T04:33:06.114Z,1007.68
2023-05-12T04:34:06.043Z,1007.72
2023-05-12T04:35:06.030Z,1007.72
2023-05-12T04:36:06.041Z,1007.74
2023-05-12T04:37:06.021Z,1007.72
2023-05-12T04:38:06.001Z,1007.80
2023-05-12T04:39:05.987Z,1007.77
2023-05-12T04:40:05.975Z,1007.80
2023-05-12T04:41:05.967Z,1007.80
2023-05-12T04:42:05.978Z,1007.79
2023-05-12T04:43:05.950Z,1007.80
2023-05-12T04:44:05.934Z,1007.79
2023-05-12T04:45:05.921Z,1007.89
2023-05-12T04:46:05.966Z,1007.85
2023-05-12T04:47:05.901Z,1007.91
2023-05-12T04:48:05.914Z,1007.87
2023-05-12T04:49:05.880Z,1007.89
2023-05-12T04:50:05.873Z,1007.94
2023-05-12T04:51:05.855Z,1007.93
2023-05-12T04:52:05.882Z,1007.92
2023-05-12T04:53:05.835Z,1007.93
2023-05-12T04:54:05.825Z,1007.98
2023-05-12T04:55:05.813Z,1007.97
2023-05-12T04:56:06.011Z,1008.00
2023-05-12T04:57:05.793Z,1008.04
2023-05-12T04:58:05.780Z,1008.04
2023-05-12T04:59:05.767Z,1008.01
2023-05-12T05:00:05.759Z,1008.09
2023-05-12T05:01:05.802Z,1008.09
2023-05-12T05:02:05.736Z,1008.10
2023-05-12T05:03:05.833Z,1008.15
2023-05-12T05:04:05.732Z,1008.14
2023-05-12T05:05:05.713Z,1008.16
2023-05-12T05:06:05.693Z,1008.20
2023-05-12T05:07:05.682Z,1008.20
2023-05-12T05:08:05.904Z,1008.20
2023-05-12T05:09:05.665Z,1008.21
2023-05-12T05:10:05.652Z,1008.24
2023-05-12T05:11:05.647Z,1008.26
2023-05-12T05:12:05.648Z,1008.26
2023-05-12T05:13:05.619Z,1008.27
2023-05-12T05:14:05.609Z,1008.33
2023-05-12T05:15:05.610Z,1008.38
2023-05-12T05:16:05.675Z,1008.36
2023-05-12T05:17:05.574Z,1008.38
2023-05-12T05:18:05.629Z,1008.43
2023-05-12T05:19:06.769Z,1008.43
2023-05-12T05:20:11.602Z,1008.46
2023-05-12T05:21:05.630Z,1008.44
2023-05-12T05:22:05.529Z,1008.47
2023-05-12T05:23:05.511Z,1008.48
2023-05-12T05:24:07.146Z,1008.49
2023-05-12T05:25:05.491Z,1008.50
2023-05-12T05:26:05.482Z,1008.54
2023-05-12T05:27:05.475Z,1008.56
2023-05-12T05:28:05.463Z,1008.58
2023-05-12T05:29:05.445Z,1008.62
2023-05-12T05:30:05.437Z,1008.60
2023-05-12T05:31:05.455Z,1008.62
2023-05-12T05:32:05.416Z,1008.63
2023-05-12T05:33:05.523Z,1008.66
2023-05-12T05:34:05.424Z,1008.64
2023-05-12T05:35:05.382Z,1008.70
2023-05-12T05:36:05.374Z,1008.70
2023-05-12T05:37:05.361Z,1008.66
2023-05-12T05:38:05.364Z,1008.70
2023-05-12T05:39:05.340Z,1008.71
2023-05-12T05:40:05.409Z,1008.71
2023-05-12T05:41:05.317Z,1008.73
2023-05-12T05:42:05.334Z,1008.77
2023-05-12T05:43:05.292Z,1008.77
2023-05-12T05:44:05.285Z,1008.81
2023-05-12T05:45:05.279Z,1008.80
2023-05-12T05:46:05.263Z,1008.77
2023-05-12T05:47:05.303Z,1008.81
2023-05-12T05:48:05.276Z,1008.82
2023-05-12T05:49:05.235Z,1008.82
2023-05-12T05:50:05.232Z,1008.83
2023-05-12T05:51:05.219Z,1008.87
2023-05-12T05:52:05.202Z,1008.87
2023-05-12T05:53:05.188Z,1008.87
2023-05-12T05:54:05.178Z,1008.87
2023-05-12T05:55:05.173Z,1008.88
2023-05-12T05:56:05.190Z,1008.90
2023-05-12T05:57:05.148Z,1008.86
2023-05-12T05:58:05.136Z,1008.85
2023-05-12T05:59:05.139Z,1008.87
2023-05-12T06:00:05.126Z,1008.93
2023-05-12T06:01:05.108Z,1008.90
2023-05-12T06:02:05.144Z,1008.92
2023-05-12T06:03:05.224Z,1008.94
2023-05-12T06:04:05.178Z,1008.87
2023-05-12T06:05:05.063Z,1008.93
2023-05-12T06:06:05.065Z,1008.94
2023-05-12T06:07:05.041Z,1008.96
2023-05-12T06:08:05.038Z,1008.97
2023-05-12T06:09:05.016Z,1008.94
2023-05-12T06:10:05.016Z,1008.94
2023-05-12T06:11:04.999Z,1008.97
2023-05-12T06:12:05.037Z,1008.99
2023-05-12T06:13:04.975Z,1008.98
2023-05-12T06:14:04.967Z,1009.04
2023-05-12T06:15:04.963Z,1009.00
2023-05-12T06:16:04.948Z,1009.03
2023-05-12T06:17:04.953Z,1009.02
2023-05-12T06:18:04.977Z,1009.03
2023-05-12T06:19:04.927Z,1009.04
2023-05-12T06:20:04.916Z,1009.02
2023-05-12T06:21:04.892Z,1009.10
2023-05-12T06:22:04.881Z,1009.15
2023-05-12T06:23:04.869Z,1009.16
2023-05-12T06:24:04.861Z,1009.13
2023-05-12T06:25:04.851Z,1009.14
2023-05-12T06:26:04.839Z,1009.12
2023-05-12T06:27:04.834Z,1009.14
2023-05-12T06:28:04.841Z,1009.16
2023-05-12T06:29:04.808Z,1009.20
2023-05-12T06:30:04.843Z,1009.21
2023-05-12T06:31:04.785Z,1009.19
2023-05-12T06:32:04.827Z,1009.22
2023-05-12T06:33:04.777Z,1009.24
2023-05-12T06:34:04.757Z,1009.22
2023-05-12T06:35:04.744Z,1009.28
2023-05-12T06:36:04.743Z,1009.27
2023-05-12T06:37:04.725Z,1009.30
2023-05-12T06:38:04.714Z,1009.29
2023-05-12T06:39:04.701Z,1009.28
2023-05-12T06:40:04.698Z,1009.28
2023-05-12T06:41:04.701Z,1009.27
2023-05-12T06:42:04.669Z,1009.30
2023-05-12T06:43:04.888Z,1009.31
2023-05-12T06:44:04.674Z,1009.33
2023-05-12T06:45:04.641Z,1009.32
2023-05-12T06:46:04.672Z,1009.37
2023-05-12T06:47:04.623Z,1009.34
2023-05-12T06:48:04.671Z,1009.36
2023-05-12T06:49:04.599Z,1009.36
2023-05-12T06:50:04.593Z,1009.43
2023-05-12T06:51:04.584Z,1009.41
2023-05-12T06:52:04.577Z,1009.40
2023-05-12T06:53:04.556Z,1009.43
2023-05-12T06:54:04.562Z,1009.45
2023-05-12T06:55:04.543Z,1009.45
2023-05-12T06:56:04.544Z,1009.46
2023-05-12T06:57:04.514Z,1009.47
2023-05-12T06:58:04.514Z,1009.46
2023-05-12T06:59:04.489Z,1009.44
2023-05-12T07:00:04.712Z,1009.45
2023-05-12T07:01:04.508Z,1009.50
2023-05-12T07:02:04.455Z,1009.46
2023-05-12T07:03:04.544Z,1009.54
2023-05-12T07:04:04.466Z,1009.45
2023-05-12T07:05:04.423Z,1009.50
2023-05-12T07:06:04.473Z,1009.51
2023-05-12T07:07:04.399Z,1009.51
2023-05-12T07:08:04.398Z,1009.49
2023-05-12T07:09:04.390Z,1009.54
2023-05-12T07:10:04.386Z,1009.58
2023-05-12T07:11:04.359Z,1009.57
2023-05-12T07:12:04.343Z,1009.56
2023-05-12T07:13:04.331Z,1009.59
2023-05-12T07:14:04.546Z,1009.61
2023-05-12T07:15:04.307Z,1009.58
2023-05-12T07:16:04.616Z,1009.57
2023-05-12T07:17:04.288Z,1009.61
2023-05-12T07:18:04.311Z,1009.63
2023-05-12T07:19:04.318Z,1009.65
2023-05-12T07:20:04.251Z,1009.64
2023-05-12T07:21:04.261Z,1009.70
2023-05-12T07:22:04.236Z,1009.68
2023-05-12T07:23:04.236Z,1009.70
2023-05-12T07:24:04.213Z,1009.71
2023-05-12T07:25:04.214Z,1009.73
2023-05-12T07:26:04.194Z,1009.73
2023-05-12T07:27:04.184Z,1009.78
2023-05-12T07:28:04.179Z,1009.76
2023-05-12T07:29:04.156Z,1009.74
2023-05-12T07:30:04.153Z,1009.76
2023-05-12T07:31:04.211Z,1009.76
2023-05-12T07:32:04.303Z,1009.82
2023-05-12T07:33:04.180Z,1009.82
2023-05-12T07:34:04.107Z,1009.81
2023-05-12T07:35:04.118Z,1009.80
2023-05-12T07:36:04.097Z,1009.78
2023-05-12T07:37:04.074Z,1009.82
2023-05-12T07:38:04.072Z,1009.81
2023-05-12T07:39:04.055Z,1009.81
2023-05-12T07:40:04.049Z,1009.82
2023-05-12T07:41:04.034Z,1009.82
2023-05-12T07:42:04.027Z,1009.82
2023-05-12T07:43:04.022Z,1009.81
2023-05-12T07:44:04.010Z,1009.85
2023-05-12T07:45:03.991Z,1009.87
2023-05-12T07:46:03.985Z,1009.84
2023-05-12T07:47:04.054Z,1009.86
2023-05-12T07:48:04.330Z,1009.87
2023-05-12T07:49:03.955Z,1009.91
2023-05-12T07:50:03.944Z,1009.84
2023-05-12T07:51:03.929Z,1009.85
2023-05-12T07:52:03.952Z,1009.90
2023-05-12T07:53:03.910Z,1009.87
2023-05-12T07:54:03.901Z,1009.86
2023-05-12T07:55:03.927Z,1009.88
2023-05-12T07:56:03.878Z,1009.91
2023-05-12T07:57:03.862Z,1009.90
2023-05-12T07:58:03.853Z,1009.90
2023-05-12T07:59:03.843Z,1009.90
2023-05-12T08:00:03.853Z,1009.88
2023-05-12T08:01:03.823Z,1009.92
2023-05-12T08:02:03.876Z,1009.94
2023-05-12T08:03:03.955Z,1009.91
2023-05-12T08:04:03.949Z,1009.89
2023-05-12T08:05:03.782Z,1009.94
2023-05-12T08:06:03.773Z,1009.93
2023-05-12T08:07:03.759Z,1009.98
2023-05-12T08:08:03.748Z,1010.00
2023-05-12T08:09:03.738Z,1010.00
2023-05-12T08:10:03.737Z,1010.01
2023-05-12T08:11:03.713Z,1010.01
2023-05-12T08:12:03.706Z,1010.06
2023-05-12T08:13:03.701Z,1010.08
2023-05-12T08:14:03.688Z,1010.07
2023-05-12T08:15:03.676Z,1010.12
2023-05-12T08:16:03.663Z,1010.10
2023-05-12T08:17:03.720Z,1010.13
2023-05-12T08:18:03.685Z,1010.05
2023-05-12T08:19:03.740Z,1010.12
2023-05-12T08:20:03.682Z,1010.10
2023-05-12T08:21:03.609Z,1010.13
2023-05-12T08:22:03.599Z,1010.12
2023-05-12T08:23:03.590Z,1010.07
2023-05-12T08:24:03.578Z,1010.07
2023-05-12T08:25:03.566Z,1010.11
2023-05-12T08:26:03.584Z,1010.13
2023-05-12T08:27:03.546Z,1010.17
2023-05-12T08:28:03.534Z,1010.22
2023-05-12T08:29:03.520Z,1010.20
2023-05-12T08:30:03.517Z,1010.15
2023-05-12T08:31:05.063Z,1010.16
2023-05-12T08:32:03.491Z,1010.17
2023-05-12T08:33:03.555Z,1010.21
2023-05-12T08:34:10.510Z,1010.16
2023-05-12T08:35:04.487Z,1010.18
2023-05-12T08:36:03.671Z,1010.20
2023-05-12T08:37:03.431Z,1010.19
2023-05-12T08:38:03.421Z,1010.19
2023-05-12T08:39:03.415Z,1010.23
2023-05-12T08:40:03.403Z,1010.18
2023-05-12T08:41:03.403Z,1010.18
2023-05-12T08:42:03.422Z,1010.22
2023-05-12T08:43:03.372Z,1010.24
2023-05-12T08:44:03.360Z,1010.24
2023-05-12T08:45:03.353Z,1010.25
2023-05-12T08:46:03.365Z,1010.24
2023-05-12T08:47:03.327Z,1010.27
2023-05-12T08:48:03.356Z,1010.25
2023-05-12T08:49:03.310Z,1010.29
2023-05-12T08:50:03.294Z,1010.26
2023-05-12T08:51:03.307Z,1010.26
2023-05-12T08:52:03.331Z,1010.26
2023-05-12T08:53:03.270Z,1010.24
2023-05-12T08:54:03.260Z,1010.26
2023-05-12T08:55:03.668Z,1010.26
2023-05-12T08:57:09.596Z,1010.27
2023-05-12T08:58:03.216Z,1010.26
2023-05-12T08:59:03.212Z,1010.32
2023-05-12T09:00:03.199Z,1010.30
2023-05-12T09:01:03.296Z,1010.30
2023-05-12T09:02:03.193Z,1010.30
2023-05-12T09:03:03.181Z,1010.31
2023-05-12T09:04:03.162Z,1010.32
2023-05-12T09:05:03.142Z,1010.33
2023-05-12T09:06:03.126Z,1010.35
2023-05-12T09:07:03.122Z,1010.36
2023-05-12T09:08:03.245Z,1010.38
2023-05-12T09:09:03.113Z,1010.37
2023-05-12T09:10:03.097Z,1010.38
2023-05-12T09:11:03.087Z,1010.39
2023-05-12T09:12:03.085Z,1010.42
2023-05-12T09:13:03.051Z,1010.42
2023-05-12T09:14:03.043Z,1010.37
2023-05-12T09:15:03.042Z,1010.39
2023-05-12T09:16:03.098Z,1010.32
2023-05-12T09:17:03.007Z,1010.35
2023-05-12T09:18:03.060Z,1010.41
2023-05-12T09:19:05.296Z,1010.37
2023-05-12T09:20:02.976Z,1010.36
2023-05-12T09:21:02.971Z,1010.36
2023-05-12T09:22:02.959Z,1010.40
2023-05-12T09:23:02.946Z,1010.36
2023-05-12T09:24:03.152Z,1010.37
2023-05-12T09:25:02.926Z,1010.36
2023-05-12T09:26:02.917Z,1010.45
2023-05-12T09:27:02.908Z,1010.39
2023-05-12T09:28:02.897Z,1010.41
2023-05-12T09:29:02.886Z,1010.41
2023-05-12T09:30:02.888Z,1010.44
2023-05-12T09:31:02.881Z,1010.46
2023-05-12T09:32:02.953Z,1010.46
2023-05-12T09:33:02.869Z,1010.44
2023-05-12T09:34:02.836Z,1010.44
2023-05-12T09:35:02.826Z,1010.47
2023-05-12T09:36:02.816Z,1010.48
2023-05-12T09:37:02.812Z,1010.45
2023-05-12T09:38:02.792Z,1010.47
2023-05-12T09:39:02.780Z,1010.49
2023-05-12T09:40:02.909Z,1010.49
2023-05-12T09:41:02.758Z,1010.53
2023-05-12T09:42:02.750Z,1010.56
2023-05-12T09:43:02.738Z,1010.55
2023-05-12T09:44:02.729Z,1010.51
2023-05-12T09:45:02.715Z,1010.54
2023-05-12T09:46:02.739Z,1010.52
2023-05-12T09:47:02.698Z,1010.51
2023-05-12T09:48:02.891Z,1010.46
2023-05-12T09:49:02.681Z,1010.49
2023-05-12T09:50:02.666Z,1010.51
2023-05-12T09:51:02.660Z,1010.51
2023-05-12T09:52:02.643Z,1010.49
2023-05-12T09:53:02.640Z,1010.52
2023-05-12T09:54:02.621Z,1010.52
2023-05-12T09:55:02.617Z,1010.52
2023-05-12T09:56:02.820Z,1010.47
2023-05-12T09:57:02.713Z,1010.50
2023-05-12T09:58:02.576Z,1010.48
2023-05-12T09:59:02.572Z,1010.52
2023-05-12T10:00:02.566Z,1010.53
2023-05-12T10:02:02.636Z,1010.53
2023-05-12T10:03:02.557Z,1010.53
2023-05-12T10:04:02.517Z,1010.54
2023-05-12T10:05:02.661Z,1010.49
2023-05-12T10:06:02.499Z,1010.50
2023-05-12T10:07:02.491Z,1010.48
2023-05-12T10:08:02.473Z,1010.49
2023-05-12T10:09:02.459Z,1010.53
2023-05-12T10:10:02.481Z,1010.47
2023-05-12T10:11:02.459Z,1010.49
2023-05-12T10:12:02.456Z,1010.52
2023-05-12T10:13:02.439Z,1010.48
2023-05-12T10:14:02.425Z,1010.49
2023-05-12T10:15:02.400Z,1010.46
2023-05-12T10:16:02.395Z,1010.49
2023-05-12T10:17:02.444Z,1010.50
2023-05-12T10:18:02.497Z,1010.52
2023-05-12T10:19:02.492Z,1010.50
2023-05-12T10:20:02.359Z,1010.48
2023-05-12T10:21:02.360Z,1010.48
2023-05-12T10:22:02.321Z,1010.47
2023-05-12T10:23:02.532Z,1010.49
2023-05-12T10:24:02.304Z,1010.51
2023-05-12T10:25:02.296Z,1010.47
2023-05-12T10:26:02.383Z,1010.48
2023-05-12T10:27:02.298Z,1010.46
2023-05-12T10:28:02.415Z,1010.49
2023-05-12T10:29:02.256Z,1010.46
2023-05-12T10:30:02.243Z,1010.48
2023-05-12T10:31:02.469Z,1010.53
2023-05-12T10:32:02.227Z,1010.53
2023-05-12T10:33:02.323Z,1010.53
2023-05-12T10:34:02.220Z,1010.48
2023-05-12T10:35:02.195Z,1010.54
2023-05-12T10:36:02.190Z,1010.56
2023-05-12T10:37:02.169Z,1010.55
2023-05-12T10:38:02.170Z,1010.52
2023-05-12T10:39:02.148Z,1010.53
2023-05-12T10:40:02.142Z,1010.51
2023-05-12T10:41:02.129Z,1010.51
2023-05-12T10:42:02.125Z,1010.49
2023-05-12T10:43:02.106Z,1010.46
2023-05-12T10:44:02.205Z,1010.54
2023-05-12T10:45:02.090Z,1010.49
2023-05-12T10:46:02.110Z,1010.49
2023-05-12T10:47:02.059Z,1010.49
2023-05-12T10:48:02.071Z,1010.49
2023-05-12T10:49:02.041Z,1010.49
2023-05-12T10:50:02.085Z,1010.46
2023-05-12T10:51:02.029Z,1010.43
2023-05-12T10:52:02.012Z,1010.46
2023-05-12T10:53:02.003Z,1010.43
2023-05-12T10:54:01.990Z,1010.42
2023-05-12T10:55:02.113Z,1010.43
2023-05-12T10:56:02.232Z,1010.42
2023-05-12T10:57:02.435Z,1010.43
2023-05-12T10:58:02.228Z,1010.42
2023-05-12T10:59:02.200Z,1010.47
2023-05-12T11:00:02.879Z,1010.42
2023-05-12T11:01:02.219Z,1010.44
2023-05-12T11:02:03.599Z,1010.42
2023-05-12T11:03:08.006Z,1010.41
2023-05-12T11:04:03.071Z,1010.39
2023-05-12T11:05:02.117Z,1010.39
2023-05-12T11:06:02.920Z,1010.44
2023-05-12T11:07:02.943Z,1010.41
2023-05-12T11:08:02.602Z,1010.41
2023-05-12T11:09:02.989Z,1010.46
2023-05-12T11:10:02.170Z,1010.42
2023-05-12T11:11:03.116Z,1010.43
2023-05-12T11:12:02.821Z,1010.44
2023-05-12T11:13:01.798Z,1010.40
2023-05-12T11:14:01.784Z,1010.39
2023-05-12T11:15:01.853Z,1010.40
2023-05-12T11:16:01.889Z,1010.40
2023-05-12T11:17:01.759Z,1010.38
2023-05-12T11:18:01.794Z,1010.38
2023-05-12T11:19:01.768Z,1010.41
2023-05-12T11:20:01.987Z,1010.42
2023-05-12T11:21:01.917Z,1010.44
2023-05-12T11:22:01.699Z,1010.40
2023-05-12T11:23:01.896Z,1010.41
2023-05-12T11:24:01.695Z,1010.42
2023-05-12T11:25:01.713Z,1010.43
2023-05-12T11:26:01.678Z,1010.43
2023-05-12T11:27:01.649Z,1010.42
2023-05-12T11:28:01.843Z,1010.41
2023-05-12T11:29:01.628Z,1010.40
2023-05-12T11:30:01.637Z,1010.40
2023-05-12T11:31:01.608Z,1010.41
2023-05-12T11:32:02.024Z,1010.46
2023-05-12T11:33:01.628Z,1010.44
2023-05-12T11:34:11.388Z,1010.46
2023-05-12T11:35:02.597Z,1010.54
2023-05-12T11:36:01.552Z,1010.50
2023-05-12T11:37:01.544Z,1010.48
2023-05-12T11:38:01.532Z,1010.51
2023-05-12T11:39:01.519Z,1010.49
2023-05-12T11:40:01.518Z,1010.48
2023-05-12T11:41:01.508Z,1010.48
2023-05-12T11:42:12.313Z,1010.49
2023-05-12T11:43:02.518Z,1010.46
2023-05-12T11:44:01.468Z,1010.49
2023-05-12T11:45:01.463Z,1010.44
2023-05-12T11:46:01.498Z,1010.45
2023-05-12T11:47:01.492Z,1010.45
2023-05-12T11:48:01.636Z,1010.47
2023-05-12T11:49:01.419Z,1010.45
2023-05-12T11:50:01.414Z,1010.41
2023-05-12T11:51:01.403Z,1010.46
2023-05-12T11:52:01.384Z,1010.46
2023-05-12T11:53:01.388Z,1010.47
2023-05-12T11:54:01.369Z,1010.47
2023-05-12T11:55:01.357Z,1010.54
2023-05-12T11:56:01.345Z,1010.53
2023-05-12T11:57:01.342Z,1010.54
2023-05-12T11:58:01.340Z,1010.56
2023-05-12T11:59:01.317Z,1010.56
2023-05-12T12:00:01.308Z,1010.55
2023-05-12T12:01:01.297Z,1010.55
2023-05-12T12:02:01.312Z,1010.59
2023-05-12T12:03:01.372Z,1010.59
2023-05-12T12:04:01.411Z,1010.63
2023-05-12T12:05:01.253Z,1010.59
2023-05-12T12:06:01.265Z,1010.61
2023-05-12T12:07:01.242Z,1010.56
2023-05-12T12:08:01.224Z,1010.62
2023-05-12T12:09:01.224Z,1010.59
2023-05-12T12:10:01.406Z,1010.62
2023-05-12T12:11:03.593Z,1010.59
2023-05-12T12:12:01.185Z,1010.63
2023-05-12T12:13:01.176Z,1010.61
2023-05-12T12:14:01.201Z,1010.61
2023-05-12T12:15:01.170Z,1010.62
2023-05-12T12:16:01.221Z,1010.66
2023-05-12T12:17:01.142Z,1010.67
2023-05-12T12:18:01.211Z,1010.65
2023-05-12T12:19:01.127Z,1010.65
2023-05-12T12:20:01.296Z,1010.69
2023-05-12T12:21:01.090Z,1010.67
2023-05-12T12:22:01.086Z,1010.69
2023-05-12T12:23:01.068Z,1010.65
2023-05-12T12:24:01.060Z,1010.71
2023-05-12T12:25:01.060Z,1010.70
2023-05-12T12:26:01.043Z,1010.68
2023-05-12T12:27:01.049Z,1010.69
2023-05-12T12:28:01.020Z,1010.66
2023-05-12T12:29:01.003Z,1010.64
2023-05-12T12:30:01.005Z,1010.68
2023-05-12T12:31:01.009Z,1010.65
2023-05-12T12:32:01.019Z,1010.59
2023-05-12T12:33:00.987Z,1010.66
2023-05-12T12:34:00.953Z,1010.66
2023-05-12T12:35:00.941Z,1010.68
2023-05-12T12:36:00.973Z,1010.66
2023-05-12T12:37:00.921Z,1010.60
2023-05-12T12:38:00.917Z,1010.64
2023-05-12T12:39:00.907Z,1010.61
2023-05-12T12:40:00.885Z,1010.62
2023-05-12T12:41:00.888Z,1010.63
2023-05-12T12:42:00.869Z,1010.63
2023-05-12T12:43:00.861Z,1010.56
2023-05-12T12:44:00.850Z,1010.60
2023-05-12T12:45:00.840Z,1010.57
2023-05-12T12:46:00.824Z,1010.62
2023-05-12T12:47:00.826Z,1010.57
2023-05-12T12:48:00.867Z,1010.52
2023-05-12T12:49:00.798Z,1010.54
2023-05-12T12:50:00.784Z,1010.53
2023-05-12T12:51:00.774Z,1010.53
2023-05-12T12:52:00.808Z,1010.51
2023-05-12T12:53:00.753Z,1010.48
2023-05-12T12:54:00.745Z,1010.51
2023-05-12T12:55:00.734Z,1010.55
2023-05-12T12:56:00.725Z,1010.49
2023-05-12T12:57:00.719Z,1010.48
2023-05-12T12:58:00.702Z,1010.56
2023-05-12T12:59:00.695Z,1010.47
2023-05-12T13:00:00.685Z,1010.42
2023-05-12T13:01:00.713Z,1010.41
2023-05-12T13:02:00.695Z,1010.42
2023-05-12T13:03:00.980Z,1010.40
2023-05-12T13:04:00.639Z,1010.43
2023-05-12T13:05:00.643Z,1010.48
2023-05-12T13:06:00.630Z,1010.45
2023-05-12T13:07:00.619Z,1010.43
2023-05-12T13:08:00.624Z,1010.38
2023-05-12T13:09:00.597Z,1010.33
2023-05-12T13:10:00.598Z,1010.36
2023-05-12T13:11:00.582Z,1010.33
2023-05-12T13:12:00.571Z,1010.31
2023-05-12T13:13:00.571Z,1010.37
2023-05-12T13:14:00.547Z,1010.43
2023-05-12T13:15:00.644Z,1010.39
2023-05-12T13:16:00.519Z,1010.32
2023-05-12T13:17:00.557Z,1010.35
2023-05-12T13:18:00.516Z,1010.31
2023-05-12T13:19:00.628Z,1010.34
2023-05-12T13:20:00.474Z,1010.31
2023-05-12T13:21:00.477Z,1010.33
2023-05-12T13:22:00.467Z,1010.31
2023-05-12T13:23:00.448Z,1010.33
2023-05-12T13:24:00.461Z,1010.31
2023-05-12T13:25:00.466Z,1010.31
2023-05-12T13:26:00.416Z,1010.27
2023-05-12T13:27:00.434Z,1010.32
2023-05-12T13:28:00.398Z,1010.25
2023-05-12T13:29:00.397Z,1010.27
2023-05-12T13:30:00.395Z,1010.34
2023-05-12T13:31:00.446Z,1010.27
2023-05-12T13:32:00.359Z,1010.30
2023-05-12T13:33:00.387Z,1010.24
2023-05-12T13:34:00.332Z,1010.27
2023-05-12T13:35:00.412Z,1010.20
2023-05-12T13:36:00.312Z,1010.22
2023-05-12T13:37:00.506Z,1010.29
2023-05-12T13:38:00.292Z,1010.20
2023-05-12T13:39:00.289Z,1010.20
2023-05-12T13:40:00.429Z,1010.19
2023-05-12T13:41:00.258Z,1010.17
2023-05-12T13:42:00.272Z,1010.17
2023-05-12T13:43:00.239Z,1010.15
2023-05-12T13:44:00.244Z,1010.15
2023-05-12T13:45:00.295Z,1010.16
2023-05-12T13:46:00.219Z,1010.13
2023-05-12T13:47:00.205Z,1010.16
2023-05-12T13:48:00.240Z,1010.13
2023-05-12T13:49:00.178Z,1010.13
2023-05-12T13:50:01.834Z,1010.20
2023-05-12T13:51:00.157Z,1010.23
2023-05-12T13:52:00.142Z,1010.14
2023-05-12T13:53:00.128Z,1010.16
2023-05-12T13:54:00.150Z,1010.07
2023-05-12T13:55:00.117Z,1010.13
2023-05-12T13:56:00.134Z,1010.15
2023-05-12T13:57:00.123Z,1010.12
2023-05-12T13:58:00.090Z,1010.06
2023-05-12T13:59:00.064Z,1010.04
2023-05-12T14:00:00.059Z,1010.09
2023-05-12T14:01:00.051Z,1010.12
2023-05-12T14:02:00.435Z,1010.15
2023-05-12T14:03:00.074Z,1010.15
2023-05-12T14:04:00.036Z,1010.14
2023-05-12T14:05:00.105Z,1010.14
2023-05-12T14:05:59.996Z,1010.21
2023-05-12T14:06:59.983Z,1010.21
2023-05-12T14:07:59.977Z,1010.25
2023-05-12T14:08:59.964Z,1010.26
2023-05-12T14:09:59.956Z,1010.29
2023-05-12T14:10:59.949Z,1010.39
2023-05-12T14:11:59.993Z,1010.45
2023-05-12T14:12:59.926Z,1010.46
2023-05-12T14:13:59.917Z,1010.49
2023-05-12T14:15:08.116Z,1010.56
2023-05-12T14:16:00.981Z,1010.63
2023-05-12T14:16:59.889Z,1010.59
2023-05-12T14:17:59.993Z,1010.62
2023-05-12T14:18:59.975Z,1010.71
2023-05-12T14:19:59.858Z,1010.69
2023-05-12T14:20:59.848Z,1010.64
2023-05-12T14:21:59.845Z,1010.71
2023-05-12T14:22:59.829Z,1010.64
2023-05-12T14:23:59.811Z,1010.54
2023-05-12T14:24:59.799Z,1010.45
2023-05-12T14:25:59.796Z,1010.33
2023-05-12T14:26:59.796Z,1010.43
2023-05-12T14:27:59.892Z,1010.36
2023-05-12T14:28:59.918Z,1010.39
2023-05-12T14:29:59.788Z,1010.36
2023-05-12T14:30:59.938Z,1010.30
2023-05-12T14:31:59.800Z,1010.25
2023-05-12T14:32:59.725Z,1010.36
2023-05-12T14:33:59.912Z,1010.28
2023-05-12T14:34:59.692Z,1010.31
2023-05-12T14:36:06.605Z,1010.33
2023-05-12T14:37:00.702Z,1010.35
2023-05-12T14:37:59.665Z,1010.34
2023-05-12T14:38:59.652Z,1010.31
2023-05-12T14:39:59.643Z,1010.33
2023-05-12T14:40:59.629Z,1010.34
2023-05-12T14:41:59.626Z,1010.35
2023-05-12T14:42:59.606Z,1010.36
2023-05-12T14:43:59.626Z,1010.34
2023-05-12T14:44:59.591Z,1010.36
2023-05-12T14:45:59.600Z,1010.36
2023-05-12T14:46:59.582Z,1010.36
2023-05-12T14:47:59.603Z,1010.37
2023-05-12T14:48:59.550Z,1010.37
2023-05-12T14:49:59.537Z,1010.39
2023-05-12T14:50:59.526Z,1010.40
2023-05-12T14:51:59.517Z,1010.39
2023-05-12T14:52:59.504Z,1010.42
2023-05-12T14:53:59.502Z,1010.43
2023-05-12T14:54:59.484Z,1010.40
2023-05-12T14:55:59.475Z,1010.38
2023-05-12T14:56:59.462Z,1010.41
2023-05-12T14:57:59.456Z,1010.37
2023-05-12T14:58:59.439Z,1010.40
2023-05-12T14:59:59.485Z,1010.37
2023-05-12T15:00:59.481Z,1010.41
2023-05-12T15:01:59.541Z,1010.39
2023-05-12T15:02:59.532Z,1010.39
2023-05-12T15:03:59.392Z,1010.44
2023-05-12T15:04:59.377Z,1010.48
2023-05-12T15:06:59.358Z,1010.44
2023-05-12T15:07:59.347Z,1010.40
2023-05-12T15:08:59.340Z,1010.41
2023-05-12T15:09:59.325Z,1010.45
2023-05-12T15:10:59.314Z,1010.40
2023-05-12T15:11:59.309Z,1010.41
2023-05-12T15:12:59.296Z,1010.39
2023-05-12T15:13:59.283Z,1010.44
2023-05-12T15:14:59.271Z,1010.47
2023-05-12T15:15:59.319Z,1010.46
2023-05-12T15:16:59.294Z,1010.45
2023-05-12T15:17:59.262Z,1010.45
2023-05-12T15:18:59.283Z,1010.46
2023-05-12T15:19:59.308Z,1010.48
2023-05-12T15:20:59.215Z,1010.42
2023-05-12T15:21:59.197Z,1010.42
2023-05-12T15:22:59.189Z,1010.43
2023-05-12T15:23:59.177Z,1010.37
2023-05-12T15:24:59.180Z,1010.41
2023-05-12T15:26:03.266Z,1010.40
2023-05-12T15:27:00.178Z,1010.43
2023-05-12T15:27:59.144Z,1010.47
2023-05-12T15:28:59.119Z,1010.48
2023-05-12T15:29:59.113Z,1010.47
2023-05-12T15:30:59.137Z,1010.59
2023-05-12T15:31:59.133Z,1010.61
2023-05-12T15:33:00.572Z,1010.66
2023-05-12T15:33:59.079Z,1010.63
2023-05-12T15:34:59.059Z,1010.62
2023-05-12T15:35:59.051Z,1010.65
2023-05-12T15:36:59.047Z,1010.71
2023-05-12T15:37:59.044Z,1010.74
2023-05-12T15:38:59.033Z,1010.80
2023-05-12T15:39:59.015Z,1010.79
2023-05-12T15:40:59.007Z,1010.84
2023-05-12T15:41:59.017Z,1010.82
2023-05-12T15:42:58.971Z,1010.76
2023-05-12T15:43:58.970Z,1010.69
2023-05-12T15:44:58.958Z,1010.63
2023-05-12T15:45:58.987Z,1010.59
2023-05-12T15:46:58.940Z,1010.62
2023-05-12T15:47:58.982Z,1010.65
2023-05-12T15:48:58.913Z,1010.69
2023-05-12T15:49:58.901Z,1010.68
2023-05-12T15:50:58.894Z,1010.67